createdAt,value
2022-08-07T00:00:25.286Z,64.14
2022-08-07T00:02:53.569Z,63.77
2022-08-07T00:05:20.460Z,65.11
2022-08-07T00:07:46.973Z,64.60
2022-08-07T00:10:26.034Z,64.74
2022-08-07T00:12:59.932Z,64.62
2022-08-07T00:15:37.724Z,65.47
2022-08-07T00:18:19.451Z,64.92
2022-08-07T00:20:46.772Z,65.21
2022-08-07T00:23:14.817Z,64.95
2022-08-07T00:25:43.408Z,63.72
2022-08-07T00:28:12.406Z,64.64
2022-08-07T00:30:42.088Z,64.00
2022-08-07T00:33:08.936Z,63.99
2022-08-07T00:35:36.746Z,64.65
2022-08-07T00:38:04.048Z,64.23
2022-08-07T00:40:39.150Z,64.65
2022-08-07T00:43:09.867Z,64.56
2022-08-07T00:45:40.586Z,63.44
2022-08-07T00:48:10.844Z,64.43
2022-08-07T00:50:43.795Z,63.62
2022-08-07T00:53:17.521Z,63.63
2022-08-07T00:56:02.893Z,64.13
2022-08-07T00:58:30.836Z,64.12
2022-08-07T01:00:58.172Z,64.54
2022-08-07T01:03:55.675Z,64.17
2022-08-07T01:06:12.360Z,64.74
2022-08-07T01:08:51.292Z,64.50
2022-08-07T01:12:23.970Z,64.55
2022-08-07T01:14:08.878Z,64.01
2022-08-07T01:16:36.605Z,64.70
2022-08-07T01:19:04.983Z,65.27
2022-08-07T01:21:46.157Z,64.66
2022-08-07T01:24:14.294Z,64.98
2022-08-07T01:26:51.690Z,65.21
2022-08-07T01:29:20.085Z,65.87
2022-08-07T01:31:48.300Z,66.70
2022-08-07T01:34:15.627Z,68.36
2022-08-07T01:36:42.212Z,68.54
2022-08-07T01:39:10.944Z,70.22
2022-08-07T01:41:40.833Z,70.49
2022-08-07T01:44:26.370Z,71.67
2022-08-07T01:46:54.448Z,71.45
2022-08-07T01:49:21.517Z,74.01
2022-08-07T01:52:03.693Z,75.27
2022-08-07T01:54:36.802Z,75.70
2022-08-07T01:57:25.366Z,76.75
2022-08-07T02:00:00.889Z,78.85
2022-08-07T02:03:11.997Z,78.39
2022-08-07T02:05:43.107Z,79.80
2022-08-07T02:08:17.952Z,80.54
2022-08-07T02:10:54.883Z,81.80
2022-08-07T02:13:23.430Z,82.58
2022-08-07T02:16:11.970Z,82.32
2022-08-07T02:18:46.880Z,82.93
2022-08-07T02:21:16.310Z,83.27
2022-08-07T02:23:44.833Z,84.02
2022-08-07T02:26:32.777Z,85.36
2022-08-07T02:29:00.140Z,86.37
2022-08-07T02:31:29.330Z,86.18
2022-08-07T02:34:04.191Z,86.07
2022-08-07T02:36:39.367Z,86.06
2022-08-07T02:39:16.804Z,85.76
2022-08-07T02:41:56.616Z,85.91
2022-08-07T02:44:26.803Z,86.50
2022-08-07T02:46:56.328Z,86.97
2022-08-07T02:49:29.125Z,87.09
2022-08-07T02:52:13.888Z,86.38
2022-08-07T02:54:42.652Z,87.04
2022-08-07T02:57:13.465Z,88.27
2022-08-07T03:00:00.816Z,88.33
2022-08-07T03:02:28.030Z,88.37
2022-08-07T03:04:56.297Z,89.09
2022-08-07T03:08:04.526Z,90.06
2022-08-07T03:10:11.661Z,91.15
2022-08-07T03:12:41.552Z,90.73
2022-08-07T03:15:09.323Z,92.53
2022-08-07T03:17:53.577Z,92.44
2022-08-07T03:20:21.682Z,91.53
2022-08-07T03:22:50.562Z,90.90
2022-08-07T03:25:18.226Z,91.50
2022-08-07T03:27:59.479Z,91.87
2022-08-07T03:30:36.813Z,90.19
2022-08-07T03:33:05.080Z,90.98
2022-08-07T03:35:43.989Z,91.31
2022-08-07T03:38:21.200Z,92.68
2022-08-07T03:40:53.828Z,91.20
2022-08-07T03:43:26.598Z,91.69
2022-08-07T03:45:59.535Z,91.82
2022-08-07T03:48:26.862Z,91.51
2022-08-07T03:50:57.872Z,92.24
2022-08-07T03:53:30.310Z,91.69
2022-08-07T03:56:13.752Z,92.53
2022-08-07T03:59:08.513Z,92.75
2022-08-07T04:01:29.962Z,94.19
2022-08-07T04:03:58.702Z,94.92
2022-08-07T04:06:36.211Z,94.44
2022-08-07T04:09:05.703Z,94.63
2022-08-07T04:12:27.295Z,94.16
2022-08-07T04:14:38.817Z,94.39
2022-08-07T04:17:19.890Z,94.76
2022-08-07T04:19:52.831Z,95.66
2022-08-07T04:22:27.433Z,92.91
2022-08-07T04:24:56.217Z,94.04
2022-08-07T04:27:25.818Z,93.29
2022-08-07T04:30:02.010Z,92.65
2022-08-07T04:32:34.350Z,93.20
2022-08-07T04:35:05.575Z,92.80
2022-08-07T04:38:00.889Z,92.80
2022-08-07T04:40:20.257Z,93.39
2022-08-07T04:42:51.624Z,93.73
2022-08-07T04:45:22.700Z,92.89
2022-08-07T04:48:12.660Z,93.66
2022-08-07T04:50:52.842Z,93.23
2022-08-07T04:54:00.914Z,91.90
2022-08-07T04:58:12.544Z,91.73
2022-08-07T05:00:11.169Z,93.37
2022-08-07T05:02:11.300Z,93.41
2022-08-07T05:05:52.834Z,93.86
2022-08-07T05:08:19.491Z,91.35
2022-08-07T05:11:10.920Z,92.98
2022-08-07T05:14:54.211Z,93.75
2022-08-07T05:16:43.827Z,93.32
2022-08-07T05:19:16.485Z,91.88
2022-08-07T05:22:00.199Z,92.17
2022-08-07T05:24:39.589Z,93.54
2022-08-07T05:28:01.797Z,92.50
2022-08-07T05:29:56.807Z,92.11
2022-08-07T05:32:26.310Z,92.43
2022-08-07T05:34:54.050Z,91.22
2022-08-07T05:37:25.125Z,93.43
2022-08-07T05:40:14.071Z,92.75
2022-08-07T05:42:39.309Z,93.75
2022-08-07T05:45:14.682Z,92.03
2022-08-07T05:48:01.331Z,91.24
2022-08-07T05:50:31.797Z,90.70
2022-08-07T05:53:01.333Z,90.60
2022-08-07T05:56:01.864Z,89.90
2022-08-07T05:58:17.090Z,90.49
2022-08-07T06:01:05.073Z,89.58
2022-08-07T06:03:56.422Z,88.33
2022-08-07T06:06:21.838Z,87.32
2022-08-07T06:08:49.297Z,87.74
2022-08-07T06:11:18.462Z,85.00
2022-08-07T06:14:12.620Z,83.83
2022-08-07T06:16:35.281Z,84.09
2022-08-07T06:19:03.207Z,86.05
2022-08-07T06:22:14.544Z,83.54
2022-08-07T06:24:46.053Z,82.07
2022-08-07T06:27:06.757Z,80.85
2022-08-07T06:29:34.844Z,80.75
2022-08-07T06:32:05.449Z,79.93
2022-08-07T06:34:31.938Z,79.67
2022-08-07T06:36:58.309Z,82.40
2022-08-07T06:40:12.831Z,84.23
2022-08-07T06:42:35.029Z,84.33
2022-08-07T06:45:02.678Z,84.84
2022-08-07T06:47:47.902Z,82.66
2022-08-07T06:50:15.666Z,81.24
2022-08-07T06:52:53.010Z,80.27
2022-08-07T06:55:32.146Z,78.64
2022-08-07T06:58:13.703Z,77.86
2022-08-07T07:00:44.401Z,77.14
2022-08-07T07:03:14.359Z,78.43
2022-08-07T07:06:04.187Z,76.99
2022-08-07T07:08:33.353Z,75.82
2022-08-07T07:11:00.850Z,77.68
2022-08-07T07:13:43.590Z,75.38
2022-08-07T07:16:30.480Z,75.40
2022-08-07T07:19:11.427Z,75.68
2022-08-07T07:22:12.065Z,77.07
2022-08-07T07:24:43.113Z,76.42
2022-08-07T07:27:27.503Z,73.94
2022-08-07T07:30:09.906Z,73.99
2022-08-07T07:32:40.440Z,72.50
2022-08-07T07:35:11.028Z,74.27
2022-08-07T07:37:47.398Z,75.48
2022-08-07T07:40:19.375Z,72.67
2022-08-07T07:42:53.754Z,68.46
2022-08-07T07:46:35.803Z,70.43
2022-08-07T07:48:12.855Z,67.61
2022-08-07T07:51:02.021Z,66.58
2022-08-07T07:53:30.354Z,68.56
2022-08-07T07:56:02.101Z,69.84
2022-08-07T07:58:40.347Z,64.86
2022-08-07T08:02:02.085Z,61.26
2022-08-07T08:04:06.193Z,61.08
2022-08-07T08:06:36.634Z,61.87
2022-08-07T08:09:05.996Z,61.03
2022-08-07T08:11:59.620Z,59.99
2022-08-07T08:14:26.254Z,58.02
2022-08-07T08:16:54.461Z,60.60
2022-08-07T08:20:18.632Z,59.99
2022-08-07T08:22:33.256Z,58.93
2022-08-07T08:25:41.867Z,55.57
2022-08-07T08:28:12.583Z,54.91
2022-08-07T08:30:51.541Z,55.80
2022-08-07T08:33:24.353Z,57.21
2022-08-07T08:35:57.633Z,57.97
2022-08-07T08:38:34.250Z,55.14
2022-08-07T08:41:31.487Z,55.44
2022-08-07T08:44:41.146Z,54.63
2022-08-07T08:47:24.969Z,54.64
2022-08-07T08:50:19.268Z,53.53
2022-08-07T08:53:09.353Z,52.36
2022-08-07T08:55:55.514Z,51.68
2022-08-07T08:58:43.121Z,50.10
2022-08-07T09:01:18.695Z,48.63
2022-08-07T09:03:56.728Z,49.87
2022-08-07T09:06:51.120Z,47.73
2022-08-07T09:09:29.768Z,47.44
2022-08-07T09:12:38.012Z,45.41
2022-08-07T09:16:22.816Z,45.12
2022-08-07T09:18:13.064Z,45.99
2022-08-07T09:21:13.965Z,45.05
2022-08-07T09:24:58.816Z,42.80
2022-08-07T09:28:00.394Z,42.25
2022-08-07T09:30:55.731Z,41.37
2022-08-07T09:33:59.049Z,43.09
2022-08-07T09:36:37.466Z,41.42
2022-08-07T09:39:54.869Z,38.98
2022-08-07T09:42:17.080Z,38.14
2022-08-07T09:47:26.103Z,37.22
2022-08-07T09:48:04.927Z,41.77
2022-08-07T09:50:39.945Z,37.57
2022-08-07T09:53:09.814Z,34.35
2022-08-07T09:56:03.400Z,35.99
2022-08-07T09:58:48.748Z,34.65
2022-08-07T10:01:51.481Z,34.64
2022-08-07T10:04:54.933Z,32.73
2022-08-07T10:07:53.314Z,35.38
2022-08-07T10:11:07.857Z,33.66
2022-08-07T10:13:58.349Z,31.22
2022-08-07T10:16:48.014Z,32.67
2022-08-07T10:19:30.329Z,32.54
2022-08-07T10:22:33.589Z,32.16
2022-08-07T10:25:09.256Z,32.43
2022-08-07T10:27:53.338Z,31.04
2022-08-07T10:31:02.835Z,29.33
2022-08-07T10:34:05.601Z,28.43
2022-08-07T10:37:03.837Z,32.63
2022-08-07T10:40:02.864Z,30.70
2022-08-07T10:43:00.768Z,28.12
2022-08-07T10:45:44.551Z,27.68
2022-08-07T10:48:24.417Z,26.21
2022-08-07T10:51:16.616Z,28.75
2022-08-07T10:54:08.638Z,29.50
2022-08-07T10:56:59.926Z,26.17
2022-08-07T10:59:47.425Z,27.86
2022-08-07T11:02:27.692Z,27.22
2022-08-07T11:05:35.774Z,28.47
2022-08-07T11:08:45.656Z,28.47
2022-08-07T11:11:20.334Z,29.28
2022-08-07T11:14:44.470Z,27.09
2022-08-07T11:16:56.787Z,25.72
2022-08-07T11:19:50.261Z,27.97
2022-08-07T11:22:42.707Z,25.07
2022-08-07T11:25:36.212Z,24.50
2022-08-07T11:28:17.554Z,24.34
2022-08-07T11:31:08.913Z,30.16
2022-08-07T11:34:06.282Z,26.81
2022-08-07T11:36:56.373Z,27.04
2022-08-07T11:39:39.662Z,27.11
2022-08-07T11:42:29.841Z,24.76
2022-08-07T11:45:13.070Z,25.60
2022-08-07T11:47:59.035Z,25.81
2022-08-07T11:50:44.347Z,26.86
2022-08-07T11:53:43.237Z,26.89
2022-08-07T11:56:59.381Z,26.69
2022-08-07T12:00:10.939Z,28.20
2022-08-07T12:02:52.038Z,25.94
2022-08-07T12:06:36.987Z,25.62
2022-08-07T12:09:07.463Z,26.77
2022-08-07T12:12:09.324Z,26.53
2022-08-07T12:14:38.684Z,26.81
2022-08-07T12:17:10.135Z,27.45
2022-08-07T12:20:30.753Z,26.92
2022-08-07T12:23:21.625Z,26.13
2022-08-07T12:26:28.965Z,26.36
2022-08-07T12:28:58.611Z,26.58
2022-08-07T12:32:01.953Z,24.61
2022-08-07T12:34:27.730Z,25.45
2022-08-07T12:36:57.422Z,25.38
2022-08-07T12:39:43.917Z,25.97
2022-08-07T12:42:27.324Z,27.89
2022-08-07T12:45:05.636Z,28.73
2022-08-07T12:47:42.691Z,25.21
2022-08-07T12:50:34.459Z,27.81
2022-08-07T12:53:27.665Z,29.29
2022-08-07T12:56:26.635Z,25.21
2022-08-07T12:58:56.991Z,27.57
2022-08-07T13:01:29.301Z,26.84
2022-08-07T13:04:34.268Z,27.26
2022-08-07T13:08:14.623Z,26.11
2022-08-07T13:10:39.603Z,25.85
2022-08-07T13:13:48.958Z,26.22
2022-08-07T13:16:16.505Z,24.98
2022-08-07T13:19:00.081Z,25.35
2022-08-07T13:21:57.548Z,27.12
2022-08-07T13:24:53.861Z,26.13
2022-08-07T13:28:14.551Z,25.98
2022-08-07T13:30:40.564Z,27.50
2022-08-07T13:34:30.926Z,27.27
2022-08-07T13:36:49.061Z,27.77
2022-08-07T13:40:32.707Z,24.91
2022-08-07T13:42:36.279Z,25.78
2022-08-07T13:46:06.883Z,27.26
2022-08-07T13:48:05.983Z,27.61
2022-08-07T13:50:44.972Z,26.92
2022-08-07T13:53:26.327Z,27.03
2022-08-07T13:56:05.217Z,28.79
2022-08-07T13:58:57.067Z,27.56
2022-08-07T14:01:26.396Z,27.77
2022-08-07T14:04:07.774Z,28.44
2022-08-07T14:06:38.397Z,28.92
2022-08-07T14:09:07.219Z,29.14
2022-08-07T14:11:53.266Z,29.15
2022-08-07T14:14:33.044Z,29.66
2022-08-07T14:17:32.317Z,30.63
2022-08-07T14:20:42.029Z,28.68
2022-08-07T14:22:48.533Z,28.14
2022-08-07T14:25:16.914Z,29.27
2022-08-07T14:28:11.009Z,30.69
2022-08-07T14:30:36.677Z,28.86
2022-08-07T14:33:08.381Z,29.74
2022-08-07T14:35:42.933Z,29.53
2022-08-07T14:38:26.482Z,30.00
2022-08-07T14:41:14.653Z,29.24
2022-08-07T14:43:57.910Z,30.21
2022-08-07T14:46:33.194Z,30.14
2022-08-07T14:49:55.562Z,28.22
2022-08-07T14:52:03.127Z,29.99
2022-08-07T14:54:35.812Z,29.40
2022-08-07T14:57:15.030Z,29.57
2022-08-07T15:00:05.752Z,29.11
2022-08-07T15:02:34.864Z,29.39
2022-08-07T15:10:41.879Z,30.22
2022-08-07T15:13:26.762Z,28.20
2022-08-07T15:16:10.951Z,30.00
2022-08-07T15:18:43.089Z,31.19
2022-08-07T15:21:59.335Z,30.02
2022-08-07T15:25:13.027Z,31.06
2022-08-07T15:27:23.002Z,30.36
2022-08-07T15:30:04.494Z,28.66
2022-08-07T15:33:01.368Z,30.24
2022-08-07T15:35:40.648Z,30.44
2022-08-07T15:44:08.974Z,31.05
2022-08-07T15:46:51.683Z,30.62
2022-08-07T15:50:05.885Z,30.52
2022-08-07T15:52:17.108Z,30.52
2022-08-07T15:55:02.851Z,29.87
2022-08-07T15:57:47.517Z,30.99
2022-08-07T16:00:31.002Z,31.69
2022-08-07T16:03:03.077Z,30.95
2022-08-07T16:05:31.486Z,30.90
2022-08-07T16:08:32.608Z,31.24
2022-08-07T16:11:26.517Z,31.42
2022-08-07T16:14:06.985Z,31.27
2022-08-07T16:16:49.949Z,31.19
2022-08-07T16:19:43.149Z,31.34
2022-08-07T16:22:54.491Z,32.23
2022-08-07T16:25:52.443Z,32.47
2022-08-07T16:30:05.419Z,31.91
2022-08-07T16:31:57.773Z,31.21
2022-08-07T16:34:39.594Z,31.17
2022-08-07T16:38:06.254Z,31.77
2022-08-07T16:40:51.111Z,31.10
2022-08-07T16:44:02.484Z,31.56
2022-08-07T16:47:12.381Z,32.29
2022-08-07T16:50:28.507Z,30.92
2022-08-07T16:54:01.942Z,31.28
2022-08-07T16:56:31.582Z,31.75
2022-08-07T16:59:21.792Z,30.97
2022-08-07T17:02:51.372Z,32.09
2022-08-07T17:06:28.773Z,31.50
2022-08-07T17:08:51.293Z,32.01
2022-08-07T17:12:03.980Z,32.21
2022-08-07T17:14:53.454Z,32.52
2022-08-07T17:17:55.352Z,32.28
2022-08-07T17:20:30.019Z,31.50
2022-08-07T17:23:19.224Z,31.36
2022-08-07T17:26:01.764Z,31.37
2022-08-07T17:28:37.286Z,31.67
2022-08-07T17:31:22.496Z,31.90
2022-08-07T17:34:32.721Z,32.29
2022-08-07T17:36:57.484Z,31.93
2022-08-07T17:40:03.227Z,32.69
2022-08-07T17:42:59.036Z,31.89
2022-08-07T17:45:35.169Z,31.90
2022-08-07T17:48:30.823Z,32.44
2022-08-07T17:51:14.888Z,32.75
2022-08-07T17:54:11.636Z,32.57
2022-08-07T17:56:49.809Z,32.54
2022-08-07T17:59:19.756Z,33.28
2022-08-07T18:01:56.899Z,32.88
2022-08-07T18:04:24.678Z,32.96
2022-08-07T18:07:20.912Z,34.03
2022-08-07T18:10:07.484Z,33.90
2022-08-07T18:13:09.756Z,34.06
2022-08-07T18:15:54.595Z,33.93
2022-08-07T18:18:44.852Z,34.13
2022-08-07T18:21:30.104Z,34.83
2022-08-07T18:24:08.955Z,34.43
2022-08-07T18:27:06.342Z,34.85
2022-08-07T18:30:08.293Z,35.28
2022-08-07T18:32:47.099Z,35.09
2022-08-07T18:35:15.759Z,35.51
2022-08-07T18:38:58.005Z,36.03
2022-08-07T18:41:20.808Z,35.38
2022-08-07T18:44:03.023Z,36.10
2022-08-07T18:46:43.325Z,35.89
2022-08-07T18:50:30.206Z,37.76
2022-08-07T18:52:55.771Z,37.13
2022-08-07T18:55:43.595Z,37.44
2022-08-07T18:58:34.726Z,37.27
2022-08-07T19:02:17.389Z,38.55
2022-08-07T19:04:13.941Z,38.81
2022-08-07T19:06:51.347Z,38.24
2022-08-07T19:09:57.011Z,38.46
2022-08-07T19:12:27.361Z,39.00
2022-08-07T19:16:03.623Z,38.80
2022-08-07T19:18:19.468Z,39.59
2022-08-07T19:21:23.241Z,39.42
2022-08-07T19:24:02.287Z,39.30
2022-08-07T19:28:31.024Z,39.42
2022-08-07T19:31:04.231Z,40.14
2022-08-07T19:32:26.016Z,40.26
2022-08-07T19:35:06.891Z,40.56
2022-08-07T19:37:55.111Z,41.59
2022-08-07T19:40:31.585Z,42.01
2022-08-07T19:43:08.629Z,42.73
2022-08-07T19:46:07.378Z,44.86
2022-08-07T19:48:42.827Z,43.97
2022-08-07T19:51:19.235Z,42.95
2022-08-07T19:54:33.669Z,43.43
2022-08-07T19:58:00.427Z,43.54
2022-08-07T19:59:40.540Z,43.40
2022-08-07T20:02:19.852Z,43.21
2022-08-07T20:04:49.739Z,44.40
2022-08-07T20:07:23.637Z,44.21
2022-08-07T20:10:35.848Z,44.39
2022-08-07T20:12:56.752Z,44.00
2022-08-07T20:15:33.155Z,44.24
2022-08-07T20:18:06.148Z,43.93
2022-08-07T20:20:41.975Z,44.71
2022-08-07T20:23:32.763Z,45.07
2022-08-07T20:26:05.685Z,45.25
2022-08-07T20:28:39.844Z,45.63
2022-08-07T20:31:21.242Z,45.60
2022-08-07T20:33:56.552Z,45.49
2022-08-07T20:36:27.089Z,46.09
2022-08-07T20:39:00.471Z,45.97
2022-08-07T20:41:40.795Z,46.21
2022-08-07T20:44:10.268Z,46.83
2022-08-07T20:46:43.909Z,47.25
2022-08-07T20:49:59.477Z,46.90
2022-08-07T20:52:01.828Z,47.94
2022-08-07T20:54:33.216Z,48.37
2022-08-07T20:57:08.195Z,47.82
2022-08-07T21:00:06.465Z,48.47
2022-08-07T21:02:53.904Z,49.06
2022-08-07T21:05:42.695Z,49.49
2022-08-07T21:08:19.913Z,49.11
2022-08-07T21:11:01.671Z,50.01
2022-08-07T21:13:57.110Z,49.82
2022-08-07T21:16:20.229Z,49.75
2022-08-07T21:18:53.242Z,49.85
2022-08-07T21:21:21.446Z,50.04
2022-08-07T21:24:07.222Z,50.43
2022-08-07T21:26:58.414Z,50.85
2022-08-07T21:29:54.085Z,50.81
2022-08-07T21:32:47.904Z,50.33
2022-08-07T21:36:04.880Z,51.75
2022-08-07T21:39:44.930Z,51.21
2022-08-07T21:42:02.674Z,51.27
2022-08-07T21:45:08.353Z,51.90
2022-08-07T21:48:28.468Z,52.53
2022-08-07T21:51:19.603Z,52.25
2022-08-07T21:53:53.976Z,52.69
2022-08-07T21:56:47.113Z,54.36
2022-08-07T21:59:36.409Z,54.23
2022-08-07T22:02:25.814Z,54.43
2022-08-07T22:04:55.814Z,54.29
2022-08-07T22:07:48.554Z,54.82
2022-08-07T22:10:19.949Z,54.67
2022-08-07T22:12:57.324Z,55.62
2022-08-07T22:16:41.891Z,56.08
2022-08-07T22:18:53.687Z,56.02
2022-08-07T22:22:02.547Z,56.31
2022-08-07T22:24:37.408Z,55.94
2022-08-07T22:27:17.222Z,56.85
2022-08-07T22:29:52.033Z,57.11
2022-08-07T22:32:33.990Z,57.45
2022-08-07T22:35:02.122Z,57.92
2022-08-07T22:38:03.717Z,58.15
2022-08-07T22:40:56.600Z,58.77
2022-08-07T22:43:31.620Z,58.71
2022-08-07T22:46:47.144Z,59.62
2022-08-07T22:49:42.805Z,60.21
2022-08-07T22:52:36.625Z,60.28
2022-08-07T22:55:14.759Z,60.56
2022-08-07T22:57:56.579Z,61.30
2022-08-07T23:00:32.139Z,61.63
2022-08-07T23:03:28.781Z,62.33
2022-08-07T23:06:18.269Z,62.42
2022-08-07T23:10:01.059Z,63.43
2022-08-07T23:12:32.728Z,64.02
2022-08-07T23:16:05.968Z,63.29
2022-08-07T23:18:31.953Z,64.89
2022-08-07T23:21:23.374Z,65.01
2022-08-07T23:24:16.733Z,64.60
2022-08-07T23:27:06.230Z,64.92
2022-08-07T23:30:39.546Z,64.08
2022-08-07T23:34:35.552Z,65.47
2022-08-07T23:36:29.240Z,66.70
2022-08-07T23:39:12.572Z,68.21
2022-08-07T23:41:47.566Z,66.73
2022-08-07T23:44:51.258Z,66.57
2022-08-07T23:47:47.977Z,66.56
2022-08-07T23:50:31.804Z,66.11
2022-08-07T23:53:16.625Z,66.18
2022-08-07T23:56:05.165Z,67.18
2022-08-07T23:59:10.595Z,66.34
